Time;durP1;ratioP1;P1;durP2;ratioP2;P2;SDS_P1;SDS_P2;PMS_P1;PMS_P2;Temp;Humidity;BMP_temperature;BMP_pressure;BME280_temperature;BME280_humidity;BME280_pressure;Samples;Min_cycle;Max_cycle;Signal;HPM_P1;HPM_P2
2022/01/06 00:01:54;;;;;;;11.90;0.60;;;3.70;99.90;;;;;;5055851;28;20108;-74
2022/01/06 00:04:19;;;;;;;7.13;0.60;;;3.60;99.90;;;;;;5073944;28;20040;-75
2022/01/06 00:06:45;;;;;;;8.35;0.93;;;3.60;99.90;;;;;;5074048;28;20032;-73
2022/01/06 00:09:15;;;;;;;10.45;0.60;;;3.40;99.90;;;;;;5073553;28;20052;-74
2022/01/06 00:11:41;;;;;;;9.10;0.52;;;3.30;99.90;;;;;;5042354;28;20119;-73
2022/01/06 00:14:17;;;;;;;8.57;0.65;;;3.30;99.90;;;;;;5038690;28;20056;-72
2022/01/06 00:16:59;;;;;;;10.20;1.05;;;3.20;99.90;;;;;;5091404;28;20541;-73
2022/01/06 00:24:54;;;;;;;8.77;0.80;;;2.90;99.90;;;;;;5069607;28;20044;-72
2022/01/06 00:27:20;;;;;;;9.00;0.50;;;2.80;99.90;;;;;;5057057;28;20855;-72
2022/01/06 00:29:46;;;;;;;10.85;0.95;;;2.70;99.90;;;;;;5056477;28;20051;-73
2022/01/06 00:32:11;;;;;;;12.93;0.90;;;2.70;99.90;;;;;;5057300;28;20048;-72
2022/01/06 00:34:37;;;;;;;13.38;1.15;;;2.70;99.90;;;;;;5074293;28;20125;-71
2022/01/06 00:37:03;;;;;;;10.25;0.70;;;2.70;99.90;;;;;;5091143;28;20507;-72
2022/01/06 00:39:29;;;;;;;13.15;1.08;;;2.70;99.90;;;;;;5073641;28;20044;-71
2022/01/06 00:41:58;;;;;;;15.43;1.10;;;2.60;99.90;;;;;;5073267;28;20052;-76
2022/01/06 00:44:23;;;;;;;17.25;1.23;;;2.60;99.90;;;;;;5072376;28;20052;-73
2022/01/06 00:46:50;;;;;;;19.17;1.70;;;2.50;99.90;;;;;;5071604;28;20045;-73
2022/01/06 00:49:17;;;;;;;13.65;1.25;;;2.50;99.90;;;;;;5053709;28;20132;-74
2022/01/06 00:51:43;;;;;;;16.38;1.63;;;2.60;99.90;;;;;;5071019;28;20048;-72
2022/01/06 00:54:09;;;;;;;26.67;2.38;;;2.70;99.90;;;;;;5073769;28;20059;-74
2022/01/06 00:56:35;;;;;;;22.27;1.85;;;2.70;99.90;;;;;;5056618;28;20036;-73
2022/01/06 00:59:00;;;;;;;16.88;1.50;;;2.80;99.90;;;;;;5056400;28;20070;-73
2022/01/06 01:01:26;;;;;;;16.65;1.58;;;2.80;99.90;;;;;;5072833;28;20400;-74
2022/01/06 01:03:51;;;;;;;17.05;1.55;;;2.90;99.90;;;;;;5072691;28;20055;-73
2022/01/06 01:06:17;;;;;;;18.48;1.02;;;3.00;99.90;;;;;;5072650;28;20044;-73
2022/01/06 01:08:43;;;;;;;17.70;1.90;;;3.00;99.90;;;;;;5054390;28;20029;-74
2022/01/06 01:11:08;;;;;;;22.25;1.92;;;3.00;99.90;;;;;;5071990;28;20097;-71
2022/01/06 01:13:42;;;;;;;13.75;1.08;;;2.90;99.90;;;;;;5056070;28;20086;-74
2022/01/06 01:16:20;;;;;;;19.83;1.92;;;2.80;99.90;;;;;;5073557;28;20044;-71
2022/01/06 01:18:48;;;;;;;14.27;0.90;;;2.70;99.90;;;;;;5071810;28;20405;-74
2022/01/06 01:21:14;;;;;;;18.92;2.40;;;2.70;99.90;;;;;;5073085;28;20043;-74
2022/01/06 01:23:40;;;;;;;21.38;1.50;;;2.60;99.90;;;;;;5072894;28;20162;-73
2022/01/06 01:26:05;;;;;;;19.27;1.58;;;2.50;99.90;;;;;;5072402;28;20555;-73
2022/01/06 01:28:42;;;;;;;11.57;0.98;;;2.50;99.90;;;;;;5072267;28;20044;-74
2022/01/06 01:33:39;;;;;;;10.00;0.95;;;2.30;99.90;;;;;;5072062;28;20105;-74
2022/01/06 01:36:05;;;;;;;19.15;1.25;;;2.20;99.90;;;;;;5072928;28;20043;-74
2022/01/06 01:38:31;;;;;;;16.58;1.27;;;2.20;99.90;;;;;;5069051;28;20048;-74
2022/01/06 01:40:57;;;;;;;18.63;1.58;;;2.10;99.90;;;;;;5071813;28;20048;-74
2022/01/06 01:43:23;;;;;;;17.95;1.40;;;2.10;99.90;;;;;;5055941;28;20044;-75
2022/01/06 01:45:55;;;;;;;18.45;1.80;;;2.10;99.90;;;;;;5072522;28;20050;-74
2022/01/06 01:48:26;;;;;;;17.33;1.55;;;2.00;99.90;;;;;;5072477;28;20052;-74
2022/01/06 01:50:52;;;;;;;13.98;1.25;;;2.00;99.90;;;;;;5072721;28;20055;-75
2022/01/06 01:53:18;;;;;;;15.05;0.90;;;2.00;99.90;;;;;;5054373;28;20048;-74
2022/01/06 01:55:43;;;;;;;16.58;1.30;;;2.00;99.90;;;;;;5072458;28;20412;-73
2022/01/06 01:58:10;;;;;;;16.25;1.85;;;2.00;99.90;;;;;;5072889;28;20048;-72
2022/01/06 02:00:36;;;;;;;18.33;1.30;;;2.00;99.90;;;;;;5072567;28;20052;-74
2022/01/06 02:03:02;;;;;;;17.08;1.73;;;2.10;99.90;;;;;;5072541;28;20461;-74
2022/01/06 02:05:28;;;;;;;8.00;1.10;;;2.10;99.90;;;;;;5072809;28;20079;-70
2022/01/06 02:07:56;;;;;;;11.60;0.80;;;2.10;99.90;;;;;;5070288;28;20052;-73
2022/01/06 02:10:22;;;;;;;11.43;0.90;;;2.10;99.90;;;;;;5072019;28;20048;-73
2022/01/06 02:12:50;;;;;;;18.52;1.30;;;2.20;99.90;;;;;;5072328;28;20082;-73
2022/01/06 02:15:16;;;;;;;19.67;1.02;;;2.10;99.90;;;;;;5054637;28;20086;-74
2022/01/06 02:17:43;;;;;;;10.93;0.73;;;2.10;99.90;;;;;;5072212;28;20071;-73
2022/01/06 02:20:13;;;;;;;10.02;0.90;;;2.00;99.90;;;;;;5072632;28;20048;-73
2022/01/06 02:22:39;;;;;;;14.82;0.70;;;1.90;99.90;;;;;;5071640;28;20044;-73
2022/01/06 02:25:29;;;;;;;15.50;0.85;;;1.80;99.90;;;;;;5071772;28;20040;-73
2022/01/06 02:27:56;;;;;;;12.70;1.13;;;1.80;99.90;;;;;;5046129;28;20052;-73
2022/01/06 02:30:25;;;;;;;18.63;1.25;;;1.70;99.90;;;;;;5074759;28;20381;-74
2022/01/06 02:32:51;;;;;;;14.73;0.85;;;1.70;99.90;;;;;;5058903;28;20106;-77
2022/01/06 02:35:19;;;;;;;13.52;1.27;;;1.60;99.90;;;;;;5075778;28;20044;-75
2022/01/06 02:37:45;;;;;;;13.23;1.13;;;1.60;99.90;;;;;;5075505;28;20040;-75
2022/01/06 02:40:19;;;;;;;23.25;1.83;;;1.50;99.90;;;;;;5076013;28;20051;-75
2022/01/06 02:42:51;;;;;;;13.05;1.00;;;1.50;99.90;;;;;;5074825;28;20044;-75
2022/01/06 02:45:19;;;;;;;12.93;0.75;;;1.40;99.90;;;;;;5059321;28;20048;-74
2022/01/06 02:47:45;;;;;;;19.58;1.27;;;1.30;99.90;;;;;;5074947;28;20483;-75
2022/01/06 02:50:12;;;;;;;21.88;1.33;;;1.30;99.90;;;;;;5058446;28;20051;-75
2022/01/06 02:52:38;;;;;;;11.48;0.93;;;1.30;99.90;;;;;;5055325;28;20059;-74
2022/01/06 02:55:09;;;;;;;15.77;0.85;;;1.20;99.90;;;;;;5039369;28;20044;-74
2022/01/06 02:57:36;;;;;;;15.25;0.77;;;1.20;99.90;;;;;;5067771;28;20036;-74
2022/01/06 03:00:04;;;;;;;18.02;1.38;;;1.10;99.90;;;;;;5075417;28;20085;-75
2022/01/06 03:02:30;;;;;;;8.35;0.70;;;1.00;99.90;;;;;;5058600;28;20040;-73
2022/01/06 03:04:55;;;;;;;12.82;0.85;;;1.00;99.90;;;;;;5074433;28;20089;-75
2022/01/06 03:07:21;;;;;;;14.63;0.52;;;0.90;99.90;;;;;;5074728;28;20055;-74
2022/01/06 03:09:53;;;;;;;14.00;0.82;;;0.90;99.90;;;;;;5074471;28;20055;-71
2022/01/06 03:12:33;;;;;;;14.15;0.75;;;0.80;99.90;;;;;;5074813;28;20122;-73
2022/01/06 03:15:00;;;;;;;10.32;0.57;;;0.80;99.90;;;;;;5092606;28;20087;-71
2022/01/06 03:17:26;;;;;;;15.45;1.05;;;0.80;99.90;;;;;;5074804;28;20040;-74
2022/01/06 03:19:51;;;;;;;16.55;1.42;;;0.80;99.90;;;;;;5074506;28;20032;-74
2022/01/06 03:22:17;;;;;;;20.65;1.08;;;0.80;99.90;;;;;;5075365;28;20142;-70
2022/01/06 03:24:43;;;;;;;14.15;1.25;;;0.80;99.90;;;;;;5074279;28;20040;-74
2022/01/06 03:27:09;;;;;;;7.25;0.75;;;0.80;99.90;;;;;;5074045;28;20048;-74
2022/01/06 03:29:34;;;;;;;11.60;0.63;;;0.80;99.90;;;;;;5092348;28;20089;-72
2022/01/06 03:32:00;;;;;;;16.02;1.13;;;0.80;99.90;;;;;;5092267;28;20031;-72
2022/01/06 03:34:30;;;;;;;15.43;1.17;;;0.80;99.90;;;;;;5075055;28;20054;-72
2022/01/06 03:36:57;;;;;;;20.20;0.93;;;0.80;99.90;;;;;;5074598;28;20093;-73
2022/01/06 03:39:22;;;;;;;12.77;0.77;;;0.70;99.90;;;;;;5074006;28;20047;-73
2022/01/06 03:41:48;;;;;;;13.60;1.17;;;0.70;99.90;;;;;;5074741;28;20032;-70
2022/01/06 03:44:13;;;;;;;9.85;0.90;;;0.80;99.90;;;;;;5074597;28;20392;-72
2022/01/06 03:46:39;;;;;;;14.30;1.27;;;0.70;99.90;;;;;;5073918;28;20140;-73
2022/01/06 03:49:05;;;;;;;15.60;1.00;;;0.60;99.90;;;;;;5074714;28;20393;-71
2022/01/06 03:51:30;;;;;;;15.25;0.63;;;0.70;99.90;;;;;;5074498;28;20040;-73
2022/01/06 03:53:56;;;;;;;10.52;0.88;;;0.60;99.90;;;;;;5072349;28;20064;-72
2022/01/06 03:56:22;;;;;;;14.02;0.98;;;0.60;99.90;;;;;;5074233;28;20080;-72
2022/01/06 03:58:48;;;;;;;13.43;0.80;;;0.60;99.90;;;;;;5074107;28;20393;-72
2022/01/06 04:01:14;;;;;;;11.98;0.73;;;0.50;99.90;;;;;;5073648;28;20058;-72
2022/01/06 04:03:40;;;;;;;17.25;1.20;;;0.50;99.90;;;;;;5074526;28;20048;-72
2022/01/06 04:06:06;;;;;;;10.90;1.00;;;0.50;99.90;;;;;;5074333;28;20097;-72
2022/01/06 04:08:32;;;;;;;13.05;0.88;;;0.50;99.90;;;;;;5073650;28;20083;-70
2022/01/06 04:10:57;;;;;;;20.10;1.13;;;0.50;99.90;;;;;;5073911;28;20051;-72
2022/01/06 04:13:24;;;;;;;16.40;1.13;;;0.40;99.90;;;;;;5057218;28;20090;-73
2022/01/06 04:15:50;;;;;;;10.02;0.65;;;0.40;99.90;;;;;;5073436;28;20048;-72
2022/01/06 04:18:15;;;;;;;16.88;1.17;;;0.40;99.90;;;;;;5073806;28;20092;-75
2022/01/06 04:20:41;;;;;;;12.30;0.95;;;0.40;99.90;;;;;;5073615;28;20059;-74
2022/01/06 04:23:07;;;;;;;19.52;0.90;;;0.30;99.90;;;;;;5074049;28;20043;-75
2022/01/06 04:25:32;;;;;;;14.55;0.82;;;0.20;99.90;;;;;;5073119;28;20044;-76
2022/01/06 04:27:58;;;;;;;11.15;0.80;;;0.20;99.90;;;;;;5073043;28;20513;-73
2022/01/06 04:30:23;;;;;;;15.27;0.93;;;0.20;99.90;;;;;;5056705;28;20082;-73
2022/01/06 04:32:49;;;;;;;10.52;1.17;;;0.10;99.90;;;;;;5073770;28;20099;-68
2022/01/06 04:35:15;;;;;;;5.28;0.93;;;0.10;99.90;;;;;;5072977;28;20120;-74
2022/01/06 04:37:40;;;;;;;14.80;1.13;;;0.10;99.90;;;;;;5073584;28;20101;-74
2022/01/06 04:40:07;;;;;;;11.63;0.73;;;0.10;99.90;;;;;;5074241;28;20226;-74
2022/01/06 04:42:33;;;;;;;16.13;1.33;;;0.10;99.90;;;;;;5072609;28;20040;-75
2022/01/06 04:44:59;;;;;;;14.32;1.25;;;0.00;99.90;;;;;;5073141;28;20055;-75
2022/01/06 04:47:24;;;;;;;12.55;0.77;;;0.00;99.90;;;;;;5056696;28;20040;-75
2022/01/06 04:49:50;;;;;;;10.18;0.70;;;0.00;99.90;;;;;;5072114;28;20040;-74
2022/01/06 04:52:16;;;;;;;11.38;0.73;;;-0.10;99.90;;;;;;5056479;28;20133;-73
2022/01/06 04:54:41;;;;;;;12.02;0.68;;;-0.10;99.90;;;;;;5055555;28;20052;-74
2022/01/06 04:57:07;;;;;;;6.45;0.65;;;-0.10;99.90;;;;;;5073214;28;20052;-70
2022/01/06 04:59:33;;;;;;;19.77;1.20;;;-0.10;99.90;;;;;;5073110;28;20127;-69
2022/01/06 05:01:59;;;;;;;12.52;1.23;;;-0.10;99.90;;;;;;5091396;28;20056;-75
2022/01/06 05:04:24;;;;;;;12.70;1.05;;;-0.10;99.90;;;;;;5072406;28;20075;-75
2022/01/06 05:06:53;;;;;;;12.90;0.80;;;-0.10;99.90;;;;;;5073070;28;20447;-70
2022/01/06 05:09:19;;;;;;;10.63;1.02;;;-0.20;99.90;;;;;;5073119;28;20115;-70
2022/01/06 05:11:44;;;;;;;8.82;0.75;;;-0.20;99.90;;;;;;5072482;28;20457;-71
2022/01/06 05:14:10;;;;;;;13.07;0.65;;;-0.20;99.90;;;;;;5071170;28;20561;-75
2022/01/06 05:16:36;;;;;;;14.93;0.93;;;-0.20;99.90;;;;;;5073093;28;20044;-74
2022/01/06 05:19:02;;;;;;;8.93;0.70;;;-0.20;99.90;;;;;;5072280;28;20040;-74
2022/01/06 05:21:30;;;;;;;11.48;0.80;;;-0.30;99.90;;;;;;5073282;28;20507;-70
2022/01/06 05:23:56;;;;;;;10.27;0.50;;;-0.30;99.90;;;;;;5088735;28;20040;-74
2022/01/06 05:26:22;;;;;;;11.27;1.00;;;-0.30;99.90;;;;;;5056489;28;20055;-74
2022/01/06 05:28:48;;;;;;;11.15;1.00;;;-0.30;99.90;;;;;;5072322;28;20051;-68
2022/01/06 05:31:13;;;;;;;14.98;1.40;;;-0.30;99.90;;;;;;5072427;28;20051;-74
2022/01/06 05:33:39;;;;;;;19.15;1.50;;;-0.30;99.90;;;;;;5072764;28;20390;-73
2022/01/06 05:36:05;;;;;;;12.02;0.80;;;-0.40;99.90;;;;;;5073469;28;20044;-71
2022/01/06 05:38:31;;;;;;;11.70;1.17;;;-0.40;99.90;;;;;;5071920;28;20048;-74
2022/01/06 05:40:57;;;;;;;16.92;0.93;;;-0.40;99.90;;;;;;5073155;28;20059;-71
2022/01/06 05:43:23;;;;;;;8.55;1.23;;;-0.40;99.90;;;;;;5072677;28;20048;-74
2022/01/06 05:45:55;;;;;;;12.25;0.60;;;-0.40;99.90;;;;;;5070735;28;20036;-68
2022/01/06 05:48:21;;;;;;;9.45;0.80;;;-0.40;99.90;;;;;;5072480;28;20124;-68
2022/01/06 05:50:48;;;;;;;24.13;1.83;;;-0.40;99.90;;;;;;5072686;28;20052;-71
2022/01/06 05:53:15;;;;;;;16.33;1.10;;;-0.40;99.90;;;;;;5071836;28;20401;-75
2022/01/06 05:55:40;;;;;;;11.60;0.93;;;-0.40;99.90;;;;;;5072665;28;20489;-75
2022/01/06 05:58:06;;;;;;;14.75;1.08;;;-0.40;99.90;;;;;;5073021;28;20123;-75
2022/01/06 06:00:32;;;;;;;14.73;1.05;;;-0.40;99.90;;;;;;5057912;28;20055;-76
2022/01/06 06:02:57;;;;;;;12.15;0.77;;;-0.40;99.90;;;;;;5076600;28;20039;-75
2022/01/06 06:05:24;;;;;;;12.98;0.95;;;-0.50;99.90;;;;;;5076516;28;20403;-76
2022/01/06 06:07:49;;;;;;;18.27;1.35;;;-0.50;99.90;;;;;;5075685;28;20044;-77
2022/01/06 06:10:15;;;;;;;13.63;1.20;;;-0.60;99.90;;;;;;5076522;28;20066;-77
2022/01/06 06:12:41;;;;;;;11.88;1.20;;;-0.50;99.90;;;;;;5076723;28;20036;-77
2022/01/06 06:15:07;;;;;;;11.05;1.17;;;-0.60;99.90;;;;;;5059383;28;20045;-77
2022/01/06 06:17:32;;;;;;;16.88;1.00;;;-0.60;99.90;;;;;;5071686;28;20050;-77
2022/01/06 06:19:58;;;;;;;15.98;1.17;;;-0.60;99.90;;;;;;5076416;28;20058;-77
2022/01/06 06:22:23;;;;;;;17.50;1.38;;;-0.70;99.90;;;;;;5055935;28;20119;-78
2022/01/06 06:24:50;;;;;;;17.45;1.77;;;-0.60;99.90;;;;;;5069562;28;20106;-71
2022/01/06 06:27:16;;;;;;;10.05;0.57;;;-0.60;99.90;;;;;;5075488;28;20047;-78
2022/01/06 06:29:42;;;;;;;11.70;0.93;;;-0.60;99.90;;;;;;5055221;28;20052;-76
2022/01/06 06:32:07;;;;;;;8.20;0.80;;;-0.60;99.90;;;;;;5066468;28;20040;-69
2022/01/06 06:34:33;;;;;;;11.93;0.50;;;-0.70;99.90;;;;;;5074734;28;20540;-75
2022/01/06 06:36:59;;;;;;;14.68;0.82;;;-0.70;99.90;;;;;;5059589;28;20052;-75
2022/01/06 06:39:24;;;;;;;13.88;0.80;;;-0.70;99.90;;;;;;5058969;28;20052;-77
2022/01/06 06:41:50;;;;;;;17.55;1.40;;;-0.70;99.90;;;;;;5075867;28;20048;-76
2022/01/06 06:44:16;;;;;;;11.18;1.23;;;-0.70;99.90;;;;;;5057593;28;20079;-70
2022/01/06 06:46:42;;;;;;;9.48;1.10;;;-0.70;99.90;;;;;;5075837;28;20119;-77
2022/01/06 06:49:07;;;;;;;22.17;1.33;;;-0.70;99.90;;;;;;5058479;28;20040;-70
2022/01/06 06:51:33;;;;;;;6.18;0.93;;;-0.70;99.90;;;;;;5094117;28;20040;-77
2022/01/06 06:53:59;;;;;;;16.10;1.17;;;-0.70;99.90;;;;;;5075365;28;20104;-76
2022/01/06 06:56:24;;;;;;;12.02;0.90;;;-0.80;99.90;;;;;;5075364;28;20125;-77
2022/01/06 06:58:50;;;;;;;16.20;1.33;;;-0.80;99.90;;;;;;5075528;28;20047;-71
2022/01/06 07:01:15;;;;;;;11.48;1.42;;;-0.80;99.90;;;;;;5075833;28;20093;-77
2022/01/06 07:03:41;;;;;;;15.35;1.45;;;-0.80;99.90;;;;;;5092867;28;20047;-76
2022/01/06 07:06:06;;;;;;;12.20;1.30;;;-0.80;99.90;;;;;;5075847;28;20598;-77
2022/01/06 07:08:32;;;;;;;11.00;1.80;;;-0.80;99.90;;;;;;5075096;28;20392;-76
2022/01/06 07:10:58;;;;;;;16.02;1.60;;;-0.90;99.90;;;;;;5074603;28;20036;-77
2022/01/06 07:13:23;;;;;;;16.35;1.92;;;-0.90;99.90;;;;;;5073181;28;20040;-77
2022/01/06 07:15:49;;;;;;;16.27;1.50;;;-0.90;99.90;;;;;;5075470;28;20400;-78
2022/01/06 07:18:14;;;;;;;13.90;1.85;;;-1.00;99.90;;;;;;5074265;28;20032;-77
2022/01/06 07:20:41;;;;;;;11.93;1.05;;;-1.00;99.90;;;;;;5075206;28;20074;-76
2022/01/06 07:23:07;;;;;;;10.25;0.65;;;-1.00;99.90;;;;;;5074941;28;20548;-70
2022/01/06 07:25:32;;;;;;;13.93;1.35;;;-1.00;99.90;;;;;;5074832;28;20135;-75
2022/01/06 07:27:58;;;;;;;15.55;1.48;;;-1.00;99.90;;;;;;5091499;28;20031;-69
2022/01/06 07:30:24;;;;;;;18.30;1.40;;;-1.00;99.90;;;;;;5095695;28;20476;-76
2022/01/06 07:32:51;;;;;;;14.00;1.33;;;-1.00;99.90;;;;;;5094317;28;20043;-76
2022/01/06 07:35:19;;;;;;;13.80;1.20;;;-1.00;99.90;;;;;;5095490;28;20047;-76
2022/01/06 07:37:46;;;;;;;17.60;1.17;;;-1.00;99.90;;;;;;5093878;28;20090;-76
2022/01/06 07:40:13;;;;;;;12.05;1.20;;;-1.10;99.90;;;;;;5095662;28;20043;-76
2022/01/06 07:42:39;;;;;;;12.82;0.95;;;-1.10;99.90;;;;;;5094980;28;20104;-78
2022/01/06 07:45:06;;;;;;;17.25;1.65;;;-1.10;99.90;;;;;;5094240;28;20051;-74
2022/01/06 07:47:35;;;;;;;16.38;1.10;;;-1.10;99.90;;;;;;5094419;28;20059;-76
2022/01/06 07:50:00;;;;;;;13.48;1.02;;;-1.00;99.90;;;;;;5095199;28;20051;-75
2022/01/06 07:52:26;;;;;;;16.20;1.55;;;-1.10;99.90;;;;;;5093718;28;20071;-76
2022/01/06 07:54:52;;;;;;;19.60;1.65;;;-1.10;99.90;;;;;;5094731;28;20126;-76
2022/01/06 07:57:18;;;;;;;15.18;1.48;;;-1.10;99.90;;;;;;5077484;28;20038;-72
2022/01/06 07:59:43;;;;;;;9.23;1.55;;;-1.10;99.90;;;;;;5094100;28;20035;-75
2022/01/06 08:02:09;;;;;;;10.23;1.40;;;-1.00;99.90;;;;;;5094685;28;20085;-75
2022/01/06 08:04:35;;;;;;;15.15;0.80;;;-1.10;99.90;;;;;;5095140;28;20042;-73
2022/01/06 08:07:02;;;;;;;10.20;0.82;;;-1.10;99.90;;;;;;5093489;28;20092;-75
2022/01/06 08:09:28;;;;;;;15.60;1.30;;;-1.00;99.90;;;;;;5094688;28;20044;-71
2022/01/06 08:11:54;;;;;;;15.63;2.00;;;-1.00;99.90;;;;;;5093929;28;20046;-74
2022/01/06 08:14:19;;;;;;;15.75;1.50;;;-1.00;99.90;;;;;;5089970;28;20565;-70
2022/01/06 08:16:45;;;;;;;19.13;1.52;;;-1.00;99.90;;;;;;5089295;28;20479;-75
2022/01/06 08:19:10;;;;;;;16.75;1.50;;;-1.00;99.90;;;;;;5094802;28;20047;-74
2022/01/06 08:21:36;;;;;;;12.25;1.08;;;-0.90;99.90;;;;;;5093684;28;20102;-75
2022/01/06 08:24:02;;;;;;;17.55;1.10;;;-0.90;99.90;;;;;;5093536;28;20484;-76
2022/01/06 08:26:27;;;;;;;19.27;1.38;;;-0.90;99.90;;;;;;5087253;28;20048;-78
2022/01/06 08:28:54;;;;;;;14.38;1.40;;;-0.80;99.90;;;;;;5075314;28;20075;-75
2022/01/06 08:31:19;;;;;;;17.08;1.25;;;-0.80;99.90;;;;;;5077174;28;20044;-75
2022/01/06 08:33:45;;;;;;;16.98;1.38;;;-0.80;99.90;;;;;;5076913;28;20096;-76
2022/01/06 08:36:12;;;;;;;13.07;0.90;;;-0.70;99.90;;;;;;5092331;28;20046;-75
2022/01/06 08:38:38;;;;;;;15.93;0.88;;;-0.70;99.90;;;;;;5094514;28;20055;-76
2022/01/06 08:41:03;;;;;;;18.08;1.48;;;-0.70;99.90;;;;;;5093551;28;20048;-74
2022/01/06 08:43:29;;;;;;;14.43;1.45;;;-0.60;99.90;;;;;;5076629;28;20039;-71
2022/01/06 08:46:05;;;;;;;14.87;2.13;;;-0.60;99.90;;;;;;5085121;27;1249675;-72
2022/01/06 08:48:31;;;;;;;11.20;1.05;;;-0.40;99.90;;;;;;5072328;28;20081;-73
2022/01/06 08:50:57;;;;;;;15.02;1.70;;;-0.40;99.90;;;;;;5063732;28;20048;-76
2022/01/06 08:53:25;;;;;;;18.85;1.60;;;-0.40;99.90;;;;;;5071981;28;20513;-76
2022/01/06 08:55:50;;;;;;;13.18;1.08;;;-0.40;99.90;;;;;;5090015;28;20040;-71
2022/01/06 08:58:17;;;;;;;16.85;0.98;;;-0.30;99.90;;;;;;5090069;28;20126;-75
2022/01/06 09:00:43;;;;;;;11.93;1.27;;;-0.30;99.90;;;;;;5090105;28;20040;-79
2022/01/06 09:03:10;;;;;;;19.25;1.83;;;-0.30;99.90;;;;;;5107779;28;20451;-76
2022/01/06 09:05:37;;;;;;;17.27;2.13;;;-0.20;99.90;;;;;;5108992;28;20047;-76
2022/01/06 09:08:04;;;;;;;9.35;1.98;;;-0.20;99.90;;;;;;5089472;28;20040;-73
2022/01/06 09:10:32;;;;;;;13.90;2.45;;;-0.20;99.90;;;;;;5089581;28;20043;-72
2022/01/06 09:12:58;;;;;;;17.52;1.70;;;-0.10;99.90;;;;;;5063618;28;20412;-77
2022/01/06 09:15:24;;;;;;;10.07;1.20;;;0.00;99.90;;;;;;5089712;28;20047;-77
2022/01/06 09:17:50;;;;;;;17.27;1.83;;;0.00;99.90;;;;;;5064386;28;20048;-77
2022/01/06 09:20:16;;;;;;;17.42;2.63;;;0.10;99.90;;;;;;5088386;28;20374;-78
2022/01/06 09:22:43;;;;;;;25.20;2.85;;;0.20;99.90;;;;;;5089423;28;20058;-76
2022/01/06 09:25:10;;;;;;;23.85;2.75;;;0.40;99.90;;;;;;5088392;28;20043;-74
2022/01/06 09:27:35;;;;;;;21.42;2.58;;;0.50;99.90;;;;;;5085608;28;20040;-76
2022/01/06 09:30:03;;;;;;;20.25;2.55;;;0.60;99.90;;;;;;5072078;28;20393;-75
2022/01/06 09:32:29;;;;;;;18.63;1.98;;;0.80;99.90;;;;;;5089555;28;20074;-71
2022/01/06 09:34:54;;;;;;;12.75;1.92;;;0.90;99.90;;;;;;5071179;28;20076;-76
2022/01/06 09:37:20;;;;;;;25.77;2.90;;;1.00;99.90;;;;;;5063169;28;20044;-71
2022/01/06 09:39:47;;;;;;;21.65;2.42;;;1.10;99.90;;;;;;5087165;28;20056;-72
2022/01/06 09:42:17;;;;;;;15.40;2.08;;;1.20;99.90;;;;;;5089346;28;20488;-75
2022/01/06 09:44:43;;;;;;;15.30;2.25;;;1.30;99.90;;;;;;5071407;28;20054;-74
2022/01/06 09:47:10;;;;;;;23.90;3.22;;;1.40;99.90;;;;;;5089747;28;20135;-75
2022/01/06 09:49:42;;;;;;;22.75;2.20;;;1.40;99.90;;;;;;5057838;28;20050;-76
2022/01/06 09:52:08;;;;;;;15.70;2.13;;;1.50;99.90;;;;;;5083124;28;20383;-76
2022/01/06 09:54:35;;;;;;;14.18;1.73;;;1.60;99.90;;;;;;5088541;28;20114;-76
2022/01/06 09:57:01;;;;;;;16.83;2.13;;;1.70;99.90;;;;;;5077827;28;20089;-71
2022/01/06 09:59:27;;;;;;;16.58;2.10;;;1.80;99.90;;;;;;5074892;28;20062;-74
2022/01/06 10:01:53;;;;;;;16.75;1.60;;;1.80;99.90;;;;;;5074640;28;20040;-75
2022/01/06 10:04:27;;;;;;;18.60;2.33;;;2.00;99.90;;;;;;5075296;28;20072;-71
2022/01/06 10:07:04;;;;;;;15.75;2.35;;;2.00;99.90;;;;;;5075075;28;20377;-76
2022/01/06 10:09:33;;;;;;;18.60;2.88;;;2.10;99.90;;;;;;5073367;28;20058;-71
2022/01/06 10:11:59;;;;;;;18.67;3.22;;;2.20;99.90;;;;;;5075283;28;20048;-75
2022/01/06 10:14:40;;;;;;;12.30;3.22;;;2.30;99.90;;;;;;5052358;28;20032;-75
2022/01/06 10:17:06;;;;;;;22.30;3.25;;;2.40;99.90;;;;;;5075177;28;20052;-75
2022/01/06 10:19:41;;;;;;;18.33;3.13;;;2.60;99.90;;;;;;5071250;28;20482;-75
2022/01/06 10:22:19;;;;;;;19.58;2.42;;;2.60;99.90;;;;;;5075691;28;20071;-74
2022/01/06 10:24:47;;;;;;;13.05;2.70;;;2.70;99.90;;;;;;5073821;28;20460;-75
2022/01/06 10:27:15;;;;;;;16.58;2.42;;;2.80;99.90;;;;;;5075603;28;20052;-75
2022/01/06 10:29:45;;;;;;;14.75;2.10;;;2.80;99.90;;;;;;5074636;28;20044;-75
2022/01/06 10:32:16;;;;;;;14.00;2.03;;;2.90;99.90;;;;;;5074744;28;20044;-75
2022/01/06 10:34:50;;;;;;;17.38;1.85;;;2.90;99.90;;;;;;5057474;28;20040;-75
2022/01/06 10:37:35;;;;;;;13.85;1.55;;;3.00;99.90;;;;;;5051407;28;20037;-76
2022/01/06 10:40:18;;;;;;;14.75;1.83;;;3.20;99.90;;;;;;5074020;28;20094;-76
2022/01/06 10:42:50;;;;;;;15.88;1.80;;;3.20;99.90;;;;;;5054986;28;20040;-75
2022/01/06 10:45:25;;;;;;;22.45;2.45;;;3.30;99.90;;;;;;5062818;28;20060;-76
2022/01/06 10:47:53;;;;;;;18.73;2.15;;;3.40;99.90;;;;;;5074234;28;20056;-72
2022/01/06 10:50:20;;;;;;;10.40;1.60;;;3.50;99.90;;;;;;5074924;28;20044;-71
2022/01/06 10:52:50;;;;;;;12.95;1.98;;;3.60;99.90;;;;;;5074011;28;20484;-72
2022/01/06 10:55:20;;;;;;;14.50;2.53;;;3.70;99.90;;;;;;5074345;28;20066;-76
2022/01/06 10:57:53;;;;;;;16.20;2.40;;;3.70;99.90;;;;;;5074911;28;20457;-75
2022/01/06 11:00:19;;;;;;;;;;;3.80;99.90;;;;;;5074277;28;20040;-75
2022/01/06 11:02:45;;;;;;;15.85;2.78;;;3.90;99.90;;;;;;5074888;28;20058;-75
2022/01/06 11:05:10;;;;;;;19.13;5.47;;;4.00;99.90;;;;;;5073833;28;20076;-75
2022/01/06 11:07:36;;;;;;;18.60;5.22;;;4.10;99.90;;;;;;5056249;28;20516;-76
2022/01/06 11:10:14;;;;;;;20.58;7.70;;;4.10;99.90;;;;;;5074309;28;20404;-75
2022/01/06 11:12:40;;;;;;;26.35;7.78;;;4.20;99.90;;;;;;5074445;28;20044;-74
2022/01/06 11:15:07;;;;;;;28.75;7.75;;;4.30;99.90;;;;;;5073241;28;20043;-72
2022/01/06 11:17:33;;;;;;;25.02;7.40;;;4.40;99.90;;;;;;5074464;28;20389;-74
2022/01/06 11:19:59;;;;;;;29.65;7.35;;;4.40;99.90;;;;;;5074026;28;20077;-74
2022/01/06 11:22:25;;;;;;;27.13;7.22;;;4.60;99.90;;;;;;5073752;28;20148;-75
2022/01/06 11:24:56;;;;;;;22.10;8.00;;;4.60;99.90;;;;;;5073759;28;20056;-71
2022/01/06 11:27:34;;;;;;;20.85;9.35;;;4.60;99.90;;;;;;5074252;28;20104;-75
2022/01/06 11:30:15;;;;;;;25.27;9.60;;;4.70;99.90;;;;;;5073032;28;20052;-75
2022/01/06 11:32:42;;;;;;;25.92;10.73;;;4.80;99.90;;;;;;5073904;28;20136;-75
2022/01/06 11:35:18;;;;;;;27.88;9.57;;;4.80;99.90;;;;;;5073082;28;20123;-72
2022/01/06 11:37:45;;;;;;;27.30;9.10;;;4.90;99.90;;;;;;5073973;28;20035;-75
2022/01/06 11:40:13;;;;;;;24.52;7.85;;;5.00;99.90;;;;;;5073752;28;20044;-74
2022/01/06 11:42:38;;;;;;;26.08;7.93;;;5.00;99.90;;;;;;5073479;28;20411;-74
2022/01/06 11:45:06;;;;;;;26.17;7.90;;;5.00;99.90;;;;;;5073257;28;20075;-72
2022/01/06 11:47:37;;;;;;;18.55;4.97;;;5.10;99.90;;;;;;5056580;28;20121;-75
2022/01/06 11:50:09;;;;;;;15.32;4.10;;;5.20;99.90;;;;;;5072744;28;20044;-75
2022/01/06 11:52:34;;;;;;;12.35;2.83;;;5.30;99.90;;;;;;5074173;28;20047;-75
2022/01/06 11:55:04;;;;;;;14.15;2.63;;;5.30;99.90;;;;;;5073315;28;20373;-75
2022/01/06 11:57:34;;;;;;;14.10;3.50;;;5.40;99.90;;;;;;5073240;28;20966;-75
2022/01/06 12:00:30;;;;;;;19.38;3.88;;;5.40;99.90;;;;;;5073546;28;20453;-71
2022/01/06 12:03:01;;;;;;;16.55;4.07;;;5.50;99.90;;;;;;5073477;28;20047;-74
2022/01/06 12:05:28;;;;;;;16.92;3.83;;;5.60;99.90;;;;;;5072831;28;20074;-75
2022/01/06 12:07:54;;;;;;;15.63;3.33;;;5.60;99.90;;;;;;5056674;28;20055;-75
2022/01/06 12:10:21;;;;;;;22.60;3.17;;;5.70;99.90;;;;;;5072519;28;20107;-71
2022/01/06 12:12:50;;;;;;;11.07;2.53;;;5.80;99.90;;;;;;5073677;28;20055;-75
2022/01/06 12:15:18;;;;;;;10.85;2.13;;;5.80;99.90;;;;;;5073210;28;20048;-75
2022/01/06 12:17:51;;;;;;;10.63;1.63;;;5.90;99.90;;;;;;5072028;28;20040;-75
2022/01/06 12:20:17;;;;;;;;;;;5.90;99.90;;;;;;5072560;28;20058;-75
2022/01/06 12:22:43;;;;;;;10.00;1.88;;;6.00;99.90;;;;;;5072242;28;19920;-74
2022/01/06 12:25:10;;;;;;;17.52;2.20;;;6.00;99.90;;;;;;5072048;28;20509;-70
2022/01/06 12:27:48;;;;;;;8.57;1.00;;;6.10;99.90;;;;;;5072826;28;20044;-75
2022/01/06 12:30:15;;;;;;;12.90;0.70;;;6.10;99.90;;;;;;5072114;28;20131;-75
2022/01/06 12:32:40;;;;;;;12.15;1.30;;;6.20;99.90;;;;;;5071634;28;20040;-74
2022/01/06 12:35:06;;;;;;;7.75;0.57;;;6.20;99.90;;;;;;5072110;28;20059;-74
2022/01/06 12:37:32;;;;;;;8.35;1.00;;;6.30;99.90;;;;;;5072704;28;20138;-74
2022/01/06 12:39:59;;;;;;;8.98;1.13;;;6.30;99.40;;;;;;5071775;28;20090;-73
2022/01/06 12:42:25;;;;;;;8.32;1.27;;;6.50;99.90;;;;;;5073136;28;20044;-74
2022/01/06 12:44:53;;;;;;;11.77;1.10;;;7.00;99.90;;;;;;5071528;28;20163;-74
2022/01/06 12:47:19;;;;;;;8.98;0.80;;;7.80;99.30;;;;;;5054805;28;20071;-73
2022/01/06 12:49:45;;;;;;;8.77;0.88;;;8.50;96.00;;;;;;5071719;28;20036;-74
2022/01/06 12:52:11;;;;;;;6.88;0.93;;;9.30;95.80;;;;;;5072123;28;20551;-75
2022/01/06 12:54:37;;;;;;;8.70;1.42;;;9.80;94.40;;;;;;5072396;28;20070;-75